Airfield :
LOGIN :

Register | Disclaimer

   EN    FR    IT 

 










Legend :    VFR   Marginal VFR   IFR   Intensive IFR   Very Intensive IFR
Visi :
Ceiling :
>= 8 km
>= 3000ft
5 to 8 km
1000 to 3000 ft
1500m to 5 km
500 to 1000 ft
800 to 1500m
200 to 500 ft
< 800m
< 200 ft
Symbols :   Thunderstorms  Fog  Heavy snow  Heavy precipitations  Wind > 20 kt
SIGMETs :     Misc.  Thunderstorms  Icing  Turbulence  Mountain Waves  Volcanic Ashes







- Airport Elevation : 47 ft
- IATA code : BDS


LIBR - Casale Arpt. Brindisi

CURRENT METAR :
  • 251815Z 18018KT 9999 FEW020 15/13 Q1017 NOSIG

EXPIRED METARs :
  • 251745Z 18018G28KT 9999 FEW025 15/12 Q1017 NOSIG
  • 251715Z 19021G32KT 9999 FEW025 16/12 Q1017 NOSIG
  • 251645Z 19020G31KT 9999 FEW025 16/11 Q1017 NOSIG
  • 251615Z 18020G31KT 9999 FEW025 17/12 Q1018 NOSIG
  • 251545Z 18020G31KT 9999 FEW025 18/11 Q1018 NOSIG
  • 251515Z 18023G34KT 9999 FEW025 18/11 Q1017 NOSIG

TAF TAF LIBR
Valid from the 25 at 18:00 until the 26 at 18:00 UTC


251700Z 2518/2618 17015G25KT 9999 FEW020
TEMPO 2518/2606 15018G32KT
BECMG 2603/2604 15015KT
No reported NOTAMs for that airfield.



MET'MAP, your aeronautical weather chart ! - Copyright ORBIFLY December 2007 - Disclaimer

ORBIFLY MET'MAP TEAM :

Programming & Development : Alexandra Zaïnal
Concept & Development : Baudouin d'Aumeries
Co-Development & Prog : Marc-Olivier Méhu
Technical & hardware support : Manuel Goepfert

Contact : metmap@orbifly.com




SOURCES & CREDITS :

   NOAA